BYU2
, Provo
Last Weather Update:05/15/2012 2:00:00 AM
Date
ETo
ETc
Rain
Irrigation
Req
Temp
Max
Temp
Min
Temp
Avg
Avg RH
Avg Wind
Avg Solar
inches
inches
incehs
inches
F
F
F
%
%
watts/m2
04/01/2012 0.07" 0.00" 0.00" 0.00" 65.1° 37.7° 47.4° 51.5% 5.7 MPH 112.1w/m2
04/02/2012 0.14" 0.01" 0.00" 0.01" 52.6° 29.3° 41.7° 42.4% 5.0 MPH 275.8w/m2
04/03/2012 0.13" 0.01" 0.00" 0.01" 62.1° 33.0° 46.9° 53.0% 2.0 MPH 276.4w/m2
04/04/2012 0.19" 0.02" 0.00" 0.02" 71.4° 43.5° 57.4° 37.5% 4.3 MPH 273.0w/m2
04/05/2012 0.10" 0.01" 0.00" 0.01" 62.1° 41.8° 50.1° 48.9% 3.5 MPH 157.1w/m2
04/06/2012 0.06" 0.01" 0.12" -0.11" 45.4° 28.7° 37.6° 65.9% 3.6 MPH 143.6w/m2
04/07/2012 0.15" 0.02" 0.00" 0.02" 64.3° 27.6° 44.6° 43.4% 1.8 MPH 291.9w/m2
04/08/2012 0.17" 0.03" 0.00" 0.03" 74.0° 34.7° 54.5° 31.1% 2.1 MPH 297.2w/m2
04/09/2012 0.18" 0.03" 0.00" 0.03" 77.1° 40.8° 59.4° 28.7% 2.1 MPH 292.4w/m2
04/10/2012 0.18" 0.04" 0.00" 0.04" 79.0° 47.8° 63.1° 29.5% 2.6 MPH 273.3w/m2
04/11/2012 0.14" 0.03" 0.16" -0.13" 72.3° 43.6° 57.8° 38.5% 4.8 MPH 147.1w/m2
04/12/2012 0.06" 0.01" 0.05" -0.04" 49.5° 38.1° 44.9° 72.1% 4.4 MPH 84.9w/m2
04/13/2012 0.10" 0.03" 0.04" -0.01" 54.4° 35.9° 44.4° 72.3% 2.9 MPH 193.3w/m2
04/14/2012 0.07" 0.02" 0.16" -0.14" 51.7° 37.5° 43.7° 79.5% 3.1 MPH 130.6w/m2
04/15/2012 0.13" 0.04" 0.00" 0.04" 56.2° 37.5° 46.6° 60.4% 3.2 MPH 241.5w/m2
04/16/2012 0.16" 0.05" 0.00" 0.05" 61.1° 41.2° 51.9° 39.5% 2.7 MPH 277.4w/m2
04/17/2012 0.08" 0.03" 0.12" -0.09" 56.7° 44.0° 49.5° 68.4% 2.5 MPH 167.3w/m2
04/18/2012 0.08" 0.03" 0.03" 0.00" 58.6° 46.3° 51.6° 71.8% 3.1 MPH 126.0w/m2
04/19/2012 0.10" 0.04" 0.00" 0.04" 63.2° 42.8° 51.3° 72.2% 2.2 MPH 178.1w/m2
04/20/2012 0.15" 0.06" 0.00" 0.06" 69.6° 42.4° 55.9° 60.4% 2.1 MPH 261.3w/m2
04/21/2012 0.20" 0.08" 0.00" 0.08" 79.6° 45.4° 62.5° 46.7% 2.2 MPH 315.0w/m2
04/22/2012 0.21" 0.09" 0.00" 0.09" 84.5° 47.7° 67.2° 38.6% 2.4 MPH 306.5w/m2
04/23/2012 0.20" 0.09" 0.00" 0.09" 86.3° 52.9° 70.4° 33.9% 2.5 MPH 277.5w/m2
04/24/2012 0.24" 0.12" 0.00" 0.12" 83.4° 54.4° 70.6° 30.7% 3.5 MPH 306.3w/m2
04/25/2012 0.12" 0.06" 0.00" 0.06" 74.7° 58.5° 67.0° 35.3% 2.9 MPH 138.6w/m2
04/26/2012 0.12" 0.06" 0.10" -0.04" 75.2° 43.2° 61.7° 51.6% 4.6 MPH 131.0w/m2
04/27/2012 0.16" 0.08" 0.10" -0.02" 52.7° 40.5° 46.3° 58.0% 5.1 MPH 299.7w/m2
04/28/2012 0.16" 0.09" 0.00" 0.09" 56.0° 33.4° 45.7° 41.8% 3.4 MPH 327.8w/m2
04/29/2012 0.17" 0.10" 0.00" 0.10" 64.8° 41.9° 52.2° 45.5% 2.5 MPH 323.0w/m2
04/30/2012 0.16" 0.10" 0.00" 0.10" 74.1° 41.5° 59.7° 42.3% 3.0 MPH 223.5w/m2
Totals: 4.19" 1.38" 0.88" 0.50" 86.3° 27.6° 53.4° 49.7% 3.2 MPH 228.3w/m2